Time;durP1;ratioP1;P1;durP2;ratioP2;P2;SDS_P1;SDS_P2;PMS_P1;PMS_P2;Temp;Humidity;BMP_temperature;BMP_pressure;BME280_temperature;BME280_humidity;BME280_pressure;Samples;Min_cycle;Max_cycle;Signal;HPM_P1;HPM_P2
2022/06/19 00:01:42;;;;;;;;;;;;;;;18.91;60.23;100103.06;4369262;32;20272;-94
2022/06/19 00:04:07;;;;;;;;;;;;;;;18.98;60.23;100108.81;4369429;32;20025;-93
2022/06/19 00:06:33;;;;;;;;;;;;;;;19.08;60.24;100104.66;4369407;32;20085;-93
2022/06/19 00:08:58;;;;;;;;;;;;;;;19.17;60.24;100098.00;4369743;32;20382;-94
2022/06/19 00:11:24;;;;;;;;;;;;;;;18.95;60.24;100103.75;4369968;32;20330;-93
2022/06/19 00:13:49;;;;;;;;;;;;;;;18.95;60.23;100099.31;4394957;32;20007;-94
2022/06/19 00:16:14;;;;;;;;;;;;;;;18.76;60.22;100089.97;4382453;32;20012;-95
2022/06/19 00:18:40;;;;;;;;;;;;;;;18.85;60.23;100090.25;4369834;32;19987;-93
2022/06/19 00:21:05;;;;;;;;;;;;;;;18.63;60.22;100084.56;4370020;32;19982;-94
2022/06/19 00:23:31;;;;;;;;;;;;;;;18.56;60.21;100091.97;4370096;32;19994;-94
2022/06/19 00:25:56;;;;;;;;;;;;;;;18.65;60.21;100086.16;4369637;32;20010;-93
2022/06/19 00:28:21;;;;;;;;;;;;;;;18.89;60.22;100083.00;4368643;32;20328;-92
2022/06/19 00:30:46;;;;;;;;;;;;;;;18.75;60.22;100090.91;4368035;32;25401;-92
2022/06/19 00:33:12;;;;;;;;;;;;;;;18.65;60.21;100086.16;4368557;32;20319;-92
2022/06/19 00:35:37;;;;;;;;;;;;;;;18.65;60.21;100088.81;4368423;32;19991;-92
2022/06/19 00:38:02;;;;;;;;;;;;;;;18.67;60.21;100083.44;4367966;32;20029;-91
2022/06/19 00:40:28;;;;;;;;;;;;;;;18.56;60.21;100081.44;4381174;32;19967;-93
2022/06/19 00:42:53;;;;;;;;;;;;;;;18.63;60.22;100080.13;4368905;32;19990;-93
2022/06/19 00:45:31;;;;;;;;;;;;;;;18.56;60.21;100081.44;4368827;32;20370;-92
2022/06/19 00:47:56;;;;;;;;;;;;;;;18.44;60.20;100081.28;4395056;32;20027;-93
2022/06/19 00:50:23;;;;;;;;;;;;;;;18.32;60.20;100086.34;4368876;32;19982;-93
2022/06/19 00:52:48;;;;;;;;;;;;;;;18.19;60.19;100092.41;4369172;32;19987;-93
2022/06/19 00:55:16;;;;;;;;;;;;;;;18.26;60.19;100072.69;4368870;32;20034;-92
2022/06/19 00:57:42;;;;;;;;;;;;;;;18.13;60.19;100079.59;4368514;32;20397;-93
2022/06/19 01:00:08;;;;;;;;;;;;;;;18.12;60.18;100078.75;4368376;32;19994;-92
2022/06/19 01:02:33;;;;;;;;;;;;;;;18.26;60.20;100073.53;4394495;32;19986;-92
2022/06/19 01:04:59;;;;;;;;;;;;;;;18.16;60.19;100076.78;4380815;32;19994;-93
2022/06/19 01:07:26;;;;;;;;;;;;;;;18.10;60.19;100076.22;4380818;32;19994;-93
2022/06/19 01:09:51;;;;;;;;;;;;;;;18.39;60.20;100066.59;4369121;32;19983;-94
2022/06/19 01:12:16;;;;;;;;;;;;;;;18.58;60.21;100069.00;4369536;32;20312;-94
2022/06/19 01:14:42;;;;;;;;;;;;;;;18.55;60.21;100068.34;4369409;32;20264;-94
2022/06/19 01:17:07;;;;;;;;;;;;;;;18.61;60.21;100053.00;4368534;32;20300;-93
2022/06/19 01:19:33;;;;;;;;;;;;;;;18.53;60.21;100062.31;4369194;32;20014;-92
2022/06/19 01:22:11;;;;;;;;;;;;;;;18.51;60.20;100051.00;4368053;32;20022;-91
2022/06/19 01:24:55;;;;;;;;;;;;;;;18.50;60.20;100058.06;4393140;32;19994;-92
2022/06/19 01:30:05;;;;;;;;;;;;;;;18.34;60.19;100055.50;4383409;32;20029;-91
2022/06/19 01:32:30;;;;;;;;;;;;;;;18.59;60.20;100056.66;4368579;32;20002;-93
2022/06/19 01:34:55;;;;;;;;;;;;;;;18.26;60.19;100054.25;4374453;32;20017;-91
2022/06/19 01:37:21;;;;;;;;;;;;;;;18.55;60.21;100052.53;4377113;32;19974;-91
2022/06/19 01:39:49;;;;;;;;;;;;;;;18.41;60.20;100058.59;4369279;32;19982;-93
2022/06/19 01:42:15;;;;;;;;;;;;;;;18.52;60.20;100052.72;4368656;32;20885;-92
2022/06/19 01:44:41;;;;;;;;;;;;;;;18.27;60.19;100048.03;4367985;32;20009;-90
2022/06/19 01:47:06;;;;;;;;;;;;;;;18.37;60.20;100055.31;4368283;32;20310;-92
2022/06/19 01:49:32;;;;;;;;;;;;;;;18.40;60.20;100051.63;4368256;32;20021;-92
2022/06/19 01:51:57;;;;;;;;;;;;;;;18.29;60.18;100054.06;4367903;32;20109;-90
2022/06/19 01:54:24;;;;;;;;;;;;;;;18.34;60.19;100052.00;4380334;32;20042;-92
2022/06/19 01:56:49;;;;;;;;;;;;;;;18.15;60.18;100054.03;4368106;32;20104;-93
2022/06/19 01:59:15;;;;;;;;;;;;;;;18.25;60.19;100047.28;4368155;32;20349;-92
2022/06/19 02:01:40;;;;;;;;;;;;;;;18.18;60.19;100043.28;4367788;32;20356;-92
2022/06/19 02:04:06;;;;;;;;;;;;;;;18.24;60.19;100045.59;4367811;32;20045;-92
2022/06/19 02:06:34;;;;;;;;;;;;;;;18.22;60.18;100040.41;4368063;32;19979;-92
2022/06/19 02:09:00;;;;;;;;;;;;;;;17.98;60.17;100031.28;4368148;32;20028;-92
2022/06/19 02:11:25;;;;;;;;;;;;;;;17.95;60.17;100034.94;4367764;32;20268;-92
2022/06/19 02:13:50;;;;;;;;;;;;;;;17.79;60.17;100032.38;4368917;32;20328;-95
2022/06/19 02:16:17;;;;;;;;;;;;;;;17.75;60.16;100030.00;4368141;32;19982;-93
2022/06/19 02:18:43;;;;;;;;;;;;;;;17.83;60.17;100038.31;4367833;32;20012;-92
2022/06/19 02:21:11;;;;;;;;;;;;;;;17.83;60.16;100029.56;4367997;32;19994;-92
2022/06/19 02:23:37;;;;;;;;;;;;;;;17.87;60.17;100023.16;4367999;32;20018;-92
2022/06/19 02:26:03;;;;;;;;;;;;;;;17.98;60.17;100023.37;4392796;32;19983;-92
2022/06/19 02:28:28;;;;;;;;;;;;;;;17.93;60.18;100031.56;4366494;32;19998;-92
2022/06/19 02:30:54;;;;;;;;;;;;;;;17.84;60.18;100025.97;4367737;32;19986;-93
2022/06/19 02:33:21;;;;;;;;;;;;;;;18.03;60.18;100035.38;4367732;32;20053;-93
2022/06/19 02:35:46;;;;;;;;;;;;;;;18.07;60.18;100031.59;4367749;32;20031;-92
2022/06/19 02:38:13;;;;;;;;;;;;;;;18.04;60.18;100030.94;4367857;32;20325;-92
2022/06/19 02:40:49;;;;;;;;;;;;;;;17.76;60.16;100031.69;4367710;32;20042;-92
2022/06/19 02:43:18;;;;;;;;;;;;;;;17.53;60.16;100038.22;4367939;32;20002;-90
2022/06/19 02:45:43;;;;;;;;;;;;;;;17.56;60.16;100029.31;4367912;32;19974;-89
2022/06/19 02:48:16;;;;;;;;;;;;;;;17.59;60.15;100031.75;4380220;32;19974;-91
2022/06/19 02:50:42;;;;;;;;;;;;;;;17.42;60.14;100035.31;4368134;32;19990;-92
2022/06/19 02:53:07;;;;;;;;;;;;;;;17.47;60.15;100025.38;4368439;32;19998;-93
2022/06/19 02:55:32;;;;;;;;;;;;;;;17.66;60.15;100031.31;4343156;32;819516;-92
2022/06/19 02:57:57;;;;;;;;;;;;;;;17.47;60.15;100031.50;4368267;32;27300;-92
2022/06/19 03:00:24;;;;;;;;;;;;;;;17.54;60.16;100026.75;4368014;32;24506;-92
2022/06/19 03:02:50;;;;;;;;;;;;;;;17.48;60.15;100020.03;4368573;32;19982;-92
2022/06/19 03:05:18;;;;;;;;;;;;;;;17.60;60.15;100018.50;4368631;32;19997;-92
2022/06/19 03:07:43;;;;;;;;;;;;;;;17.69;60.15;100022.44;4368443;32;20045;-91
2022/06/19 03:10:08;;;;;;;;;;;;;;;17.73;60.15;100026.56;4367272;32;21535;-91
2022/06/19 03:12:33;;;;;;;;;;;;;;;17.93;60.18;100018.38;4367700;32;20027;-93
2022/06/19 03:14:59;;;;;;;;;;;;;;;18.04;60.18;100009.87;4367527;32;20001;-92
2022/06/19 03:17:24;;;;;;;;;;;;;;;18.07;60.19;100014.97;4391970;32;27769;-91
2022/06/19 03:19:49;;;;;;;;;;;;;;;18.13;60.18;100014.59;4378983;32;19995;-91
2022/06/19 03:22:15;;;;;;;;;;;;;;;18.25;60.19;100015.66;4371506;32;20289;-91
2022/06/19 03:24:42;;;;;;;;;;;;;;;18.03;60.18;100016.94;4392486;32;20009;-93
2022/06/19 03:27:07;;;;;;;;;;;;;;;18.08;60.18;100008.75;4368553;32;19970;-94
2022/06/19 03:29:32;;;;;;;;;;;;;;;18.36;60.19;100008.81;4368470;32;20054;-93
2022/06/19 03:31:58;;;;;;;;;;;;;;;18.59;60.21;100002.16;4368390;32;19982;-94
2022/06/19 03:34:23;;;;;;;;;;;;;;;18.32;60.20;100009.09;4381128;32;20051;-93
2022/06/19 03:36:48;;;;;;;;;;;;;;;18.40;60.20;100004.19;4368184;32;20239;-94
2022/06/19 03:39:13;;;;;;;;;;;;;;;18.42;60.20;100000.53;4369377;32;20026;-94
2022/06/19 03:41:39;;;;;;;;;;;;;;;18.56;60.21;99998.84;4370745;32;19990;-94
2022/06/19 03:44:04;;;;;;;;;;;;;;;18.51;60.20;100003.56;4370897;32;20565;-94
2022/06/19 03:46:30;;;;;;;;;;;;;;;18.47;60.20;100002.91;4370190;32;19975;-93
2022/06/19 03:48:55;;;;;;;;;;;;;;;18.67;60.20;100006.97;4369694;32;19990;-91
2022/06/19 03:51:23;;;;;;;;;;;;;;;18.46;60.20;100009.13;4368711;32;20366;-90
2022/06/19 03:53:52;;;;;;;;;;;;;;;18.61;60.21;100000.25;4381540;32;19982;-89
2022/06/19 03:56:20;;;;;;;;;;;;;;;18.57;60.21;100005.81;4381498;32;19979;-90
2022/06/19 03:58:46;;;;;;;;;;;;;;;18.67;60.21;100002.53;4381313;32;19998;-89
2022/06/19 04:01:15;;;;;;;;;;;;;;;18.69;60.21;100007.72;4394862;32;19997;-91
2022/06/19 04:03:40;;;;;;;;;;;;;;;18.74;60.21;100004.81;4381271;32;19996;-90
2022/06/19 04:06:05;;;;;;;;;;;;;;;18.82;60.22;100003.41;4368532;32;19979;-89
2022/06/19 04:08:31;;;;;;;;;;;;;;;18.80;60.21;99999.16;4380885;32;19990;-89
2022/06/19 04:10:56;;;;;;;;;;;;;;;18.97;60.22;99997.19;4367997;32;24186;-89
2022/06/19 04:13:21;;;;;;;;;;;;;;;19.11;60.23;99987.53;4368061;32;21108;-89
2022/06/19 04:15:46;;;;;;;;;;;;;;;19.29;60.24;99992.50;4368419;32;19990;-89
2022/06/19 04:18:12;;;;;;;;;;;;;;;19.39;60.25;99989.25;4380988;32;20334;-89
2022/06/19 04:20:37;;;;;;;;;;;;;;;19.53;60.25;99990.09;4380791;32;20002;-89
2022/06/19 04:23:02;;;;;;;;;;;;;;;19.63;60.26;99995.59;4380842;32;19982;-89
2022/06/19 04:25:28;;;;;;;;;;;;;;;19.79;60.27;99985.72;4368409;32;19970;-89
2022/06/19 04:27:53;;;;;;;;;;;;;;;19.86;60.28;99981.72;4368390;32;20087;-90
2022/06/19 04:30:18;;;;;;;;;;;;;;;19.96;60.28;99981.13;4380955;32;20006;-90
2022/06/19 04:32:44;;;;;;;;;;;;;;;19.95;60.28;99979.44;4368217;32;20005;-89
2022/06/19 04:35:09;;;;;;;;;;;;;;;20.12;60.28;99985.28;4367851;32;19990;-89
2022/06/19 04:37:36;;;;;;;;;;;;;;;20.24;60.29;99984.44;4394754;32;20001;-90
2022/06/19 04:40:02;;;;;;;;;;;;;;;20.41;60.30;99977.19;4368421;32;20034;-89
2022/06/19 04:42:27;;;;;;;;;;;;;;;20.43;60.30;99985.87;4380794;32;20312;-88
2022/06/19 04:44:52;;;;;;;;;;;;;;;20.42;60.30;99979.72;4380245;32;20225;-88
2022/06/19 04:47:18;;;;;;;;;;;;;;;20.66;60.31;99978.97;4393912;32;24253;-89
2022/06/19 04:49:43;;;;;;;;;;;;;;;20.64;60.31;99984.38;4380260;32;20018;-88
2022/06/19 04:52:08;;;;;;;;;;;;;;;20.86;60.33;99978.44;4380098;32;19983;-89
2022/06/19 04:54:33;;;;;;;;;;;;;;;20.99;60.33;99989.81;4394492;32;20335;-89
2022/06/19 04:56:58;;;;;;;;;;;;;;;21.05;60.33;99991.16;4380870;32;19994;-89
2022/06/19 04:59:24;;;;;;;;;;;;;;;21.40;60.35;99984.22;4394329;32;19978;-89
2022/06/19 05:01:49;;;;;;;;;;;;;;;21.55;60.35;99990.22;4381378;32;31557;-90
2022/06/19 05:04:14;;;;;;;;;;;;;;;21.65;60.37;99985.91;4394710;32;19974;-91
2022/06/19 05:06:39;;;;;;;;;;;;;;;21.84;60.38;99992.50;4370724;32;20334;-92
2022/06/19 05:09:05;;;;;;;;;;;;;;;21.98;60.38;99995.78;4368858;32;19995;-92
2022/06/19 05:11:31;;;;;;;;;;;;;;;22.00;60.38;99993.00;4367987;32;20005;-90
2022/06/19 05:13:56;;;;;;;;;;;;;;;22.28;60.40;99994.47;4380683;32;19983;-90
2022/06/19 05:16:22;;;;;;;;;;;;;;;22.31;60.39;100002.19;4367836;32;20040;-89
2022/06/19 05:18:48;;;;;;;;;;;;;;;22.22;60.39;99998.41;4380466;32;20320;-88
2022/06/19 05:21:13;;;;;;;;;;;;;;;22.52;60.41;100002.34;4380725;32;20123;-89
2022/06/19 05:23:40;;;;;;;;;;;;;;;22.74;60.42;99998.88;4394477;32;20276;-88
2022/06/19 05:26:07;;;;;;;;;;;;;;;22.70;60.42;99997.41;4367970;32;20009;-89
2022/06/19 05:28:33;;;;;;;;;;;;;;;22.82;60.43;99997.31;4380651;32;19986;-89
2022/06/19 05:30:58;;;;;;;;;;;;;;;22.90;60.43;99988.75;4380317;32;19970;-89
2022/06/19 05:33:24;;;;;;;;;;;;;;;23.02;60.43;99989.59;4380377;32;19997;-89
2022/06/19 05:35:49;;;;;;;;;;;;;;;23.02;60.43;99994.91;4380311;32;19982;-90
2022/06/19 05:38:14;;;;;;;;;;;;;;;23.17;60.44;99996.31;4380328;32;19990;-89
2022/06/19 05:40:40;;;;;;;;;;;;;;;23.47;60.46;99999.16;4367884;32;19978;-89
2022/06/19 05:43:06;;;;;;;;;;;;;;;23.60;60.47;99995.53;4380602;32;20030;-89
2022/06/19 05:45:31;;;;;;;;;;;;;;;23.57;60.46;99996.62;4379940;32;19995;-89
2022/06/19 05:47:56;;;;;;;;;;;;;;;23.54;60.46;100000.34;4393503;32;20665;-89
2022/06/19 05:50:21;;;;;;;;;;;;;;;23.75;60.48;99995.09;4379906;32;19993;-88
2022/06/19 05:52:46;;;;;;;;;;;;;;;24.10;60.49;99989.50;4393519;32;24429;-89
2022/06/19 05:55:13;;;;;;;;;;;;;;;23.98;60.49;99987.88;4367735;32;20028;-89
2022/06/19 05:57:38;;;;;;;;;;;;;;;24.26;60.50;100004.16;4380323;32;20313;-88
2022/06/19 06:00:04;;;;;;;;;;;;;;;24.42;60.50;99999.25;4392119;32;24009;-89
2022/06/19 06:02:29;;;;;;;;;;;;;;;24.61;60.52;99994.06;4393666;32;20022;-89
2022/06/19 06:04:54;;;;;;;;;;;;;;;24.64;60.51;99988.47;4393849;32;19983;-89
2022/06/19 06:07:20;;;;;;;;;;;;;;;24.83;60.52;99997.47;4380155;32;19997;-89
2022/06/19 06:09:45;;;;;;;;;;;;;;;24.86;60.53;99983.94;4391942;32;27529;-90
2022/06/19 06:12:10;;;;;;;;;;;;;;;24.89;60.53;99983.66;4379418;32;31420;-88
2022/06/19 06:14:35;;;;;;;;;;;;;;;25.03;60.54;99989.47;4391410;32;25171;-88
2022/06/19 06:17:01;;;;;;;;;;;;;;;25.42;60.56;99986.91;4393508;32;19979;-89
2022/06/19 06:19:26;;;;;;;;;;;;;;;25.17;60.55;99987.41;4379440;32;19989;-88
2022/06/19 06:21:51;;;;;;;;;;;;;;;25.35;60.56;99981.28;4393164;32;20108;-89
2022/06/19 06:24:16;;;;;;;;;;;;;;;25.66;60.57;99984.69;4392877;32;20037;-89
2022/06/19 06:26:41;;;;;;;;;;;;;;;25.73;60.58;99987.66;4393158;32;19970;-88
2022/06/19 06:29:07;;;;;;;;;;;;;;;25.85;60.58;99986.53;4378765;32;19974;-89
2022/06/19 06:31:33;;;;;;;;;;;;;;;26.10;60.60;99986.94;4391953;32;19986;-89
2022/06/19 06:33:58;;;;;;;;;;;;;;;26.40;60.61;99989.44;4392907;32;19989;-88
2022/06/19 06:36:23;;;;;;;;;;;;;;;26.65;60.63;99987.94;4379735;32;19978;-89
2022/06/19 06:38:49;;;;;;;;;;;;;;;26.75;60.63;99982.59;4393318;32;19978;-89
2022/06/19 06:41:14;;;;;;;;;;;;;;;27.08;60.64;99978.50;4393483;32;19966;-89
2022/06/19 06:43:40;;;;;;;;;;;;;;;27.40;60.66;99984.22;4379735;32;20000;-89
2022/06/19 06:46:10;;;;;;;;;;;;;;;27.68;60.68;99981.50;4382314;32;19994;-88
2022/06/19 06:48:35;;;;;;;;;;;;;;;28.08;60.69;99983.69;4375504;32;20331;-88
2022/06/19 06:51:05;;;;;;;;;;;;;;;28.45;60.72;99972.78;4366982;32;20000;-90
2022/06/19 06:53:30;;;;;;;;;;;;;;;28.76;60.72;99978.47;4391975;32;19998;-89
2022/06/19 06:55:55;;;;;;;;;;;;;;;28.91;60.73;99982.25;4366400;32;20698;-88
2022/06/19 06:58:21;;;;;;;;;;;;;;;29.05;60.74;99975.41;4379457;32;20256;-89
2022/06/19 07:00:47;;;;;;;;;;;;;;;29.21;60.75;99978.16;4392397;32;25096;-89
2022/06/19 07:03:12;;;;;;;;;;;;;;;29.31;60.76;99980.69;4379492;32;20044;-89
2022/06/19 07:05:37;;;;;;;;;;;;;;;29.26;60.76;99985.72;4392927;32;19983;-89
2022/06/19 07:08:03;;;;;;;;;;;;;;;29.27;60.75;99985.53;4366279;32;21112;-90
2022/06/19 07:10:28;;;;;;;;;;;;;;;29.47;60.76;99987.97;4379144;32;19981;-89
2022/06/19 07:12:53;;;;;;;;;;;;;;;29.76;60.78;99987.50;4378783;32;21686;-89
2022/06/19 07:15:18;;;;;;;;;;;;;;;29.99;60.80;99993.87;4380877;32;19994;-90
2022/06/19 07:17:44;;;;;;;;;;;;;;;29.90;60.79;99976.13;4394742;32;20357;-89
2022/06/19 07:20:09;;;;;;;;;;;;;;;29.99;60.79;99974.25;4381100;32;20263;-87
2022/06/19 07:22:34;;;;;;;;;;;;;;;30.01;60.79;99970.41;4381210;32;20022;-88
2022/06/19 07:25:00;;;;;;;;;;;;;;;30.28;60.82;99979.97;4381196;32;20284;-89
2022/06/19 07:27:25;;;;;;;;;;;;;;;30.36;60.82;99973.75;4395068;32;19993;-89
2022/06/19 07:29:51;;;;;;;;;;;;;;;30.40;60.82;99975.09;4394919;32;19981;-89
2022/06/19 07:32:16;;;;;;;;;;;;;;;30.52;60.83;99976.38;4394552;32;21617;-88
2022/06/19 07:34:42;;;;;;;;;;;;;;;30.62;60.82;99971.72;4381154;32;19983;-89
2022/06/19 07:37:08;;;;;;;;;;;;;;;30.53;60.83;99965.50;4394883;32;20339;-89
2022/06/19 07:39:34;;;;;;;;;;;;;;;30.53;60.83;99973.56;4381183;32;20006;-89
2022/06/19 07:41:59;;;;;;;;;;;;;;;30.53;60.83;99964.66;4381173;32;20010;-89
2022/06/19 07:44:24;;;;;;;;;;;;;;;30.72;60.83;99966.94;4381126;32;19997;-89
2022/06/19 07:52:17;;;;;;;;;;;;;;;31.09;60.85;99960.94;4394961;32;20350;-88
2022/06/19 07:54:43;;;;;;;;;;;;;;;31.12;60.85;99960.56;4394808;32;20002;-87
2022/06/19 07:57:08;;;;;;;;;;;;;;;31.28;60.86;99959.69;4394601;32;20009;-87
2022/06/19 07:59:33;;;;;;;;;;;;;;;31.44;60.87;99959.56;4394084;32;28980;-86
2022/06/19 08:01:58;;;;;;;;;;;;;;;31.38;60.86;99957.59;4394024;32;24675;-86
2022/06/19 08:04:23;;;;;;;;;;;;;;;31.46;60.88;99954.81;4393366;32;20064;-87
2022/06/19 08:06:49;;;;;;;;;;;;;;;31.49;60.87;99948.28;4394825;32;20007;-87
2022/06/19 08:09:14;;;;;;;;;;;;;;;31.54;60.87;99934.28;4381031;32;19978;-87
2022/06/19 08:11:39;;;;;;;;;;;;;;;31.48;60.87;99941.22;4394649;32;20327;-86
2022/06/19 08:14:05;;;;;;;;;;;;;;;31.54;60.87;99937.81;4380220;32;27493;-86
2022/06/19 08:16:30;;;;;;;;;;;;;;;31.64;60.88;99927.63;4393350;32;19997;-86
2022/06/19 08:18:55;;;;;;;;;;;;;;;31.81;60.89;99927.53;4394004;32;28354;-86
2022/06/19 08:21:20;;;;;;;;;;;;;;;32.04;60.91;99925.63;4394340;32;20005;-86
2022/06/19 08:23:46;;;;;;;;;;;;;;;32.24;60.91;99918.69;4393901;32;27267;-86
2022/06/19 08:26:11;;;;;;;;;;;;;;;32.16;60.90;99920.62;4379808;32;19997;-85
2022/06/19 08:29:18;;;;;;;;;;;;;;;32.24;60.91;99918.69;4394464;32;20005;-84
2022/06/19 08:31:24;;;;;;;;;;;;;;;32.20;60.91;99919.25;4390091;32;20031;-83
2022/06/19 08:33:50;;;;;;;;;;;;;;;32.46;60.93;99913.44;4393037;32;35015;-83
2022/06/19 08:36:15;;;;;;;;;;;;;;;32.49;60.92;99904.97;4394332;32;20002;-83
2022/06/19 08:38:42;;;;;;;;;;;;;;;32.68;60.94;99909.81;4394314;32;19975;-82
2022/06/19 08:41:26;;;;;;;;;;;;;;;32.77;60.94;99914.06;4394249;32;20331;-83
2022/06/19 08:44:04;;;;;;;;;;;;;;;32.86;60.94;99909.41;4394313;32;19986;-82
2022/06/19 08:46:48;;;;;;;;;;;;;;;32.97;60.95;99914.31;4394018;32;19986;-83
2022/06/19 08:49:18;;;;;;;;;;;;;;;32.95;60.95;99911.00;4394028;32;19971;-83
2022/06/19 08:52:19;;;;;;;;;;;;;;;33.13;60.95;99913.28;4392130;32;19998;-82
2022/06/19 08:55:03;;;;;;;;;;;;;;;32.97;60.95;99919.72;4332758;33;20003;-83
2022/06/19 08:57:43;;;;;;;;;;;;;;;33.09;60.96;99917.34;4388548;32;20024;-83
2022/06/19 09:00:11;;;;;;;;;;;;;;;33.11;60.96;99910.72;4394435;32;19993;-82
2022/06/19 09:02:36;;;;;;;;;;;;;;;33.19;60.96;99913.34;4380340;32;19994;-83
2022/06/19 09:07:49;;;;;;;;;;;;;;;33.36;60.97;99910.41;4393986;32;20001;-82
2022/06/19 09:10:20;;;;;;;;;;;;;;;33.50;60.97;99915.75;4367845;32;19993;-81
2022/06/19 09:12:46;;;;;;;;;;;;;;;33.50;60.97;99904.13;4392707;32;20002;-83
2022/06/19 09:15:13;;;;;;;;;;;;;;;33.62;60.99;99907.97;4393022;32;20007;-83
2022/06/19 09:17:58;;;;;;;;;;;;;;;33.66;60.99;99911.13;4380335;32;19971;-83
2022/06/19 09:20:27;;;;;;;;;;;;;;;33.87;61.00;99900.31;4380597;32;20331;-83
2022/06/19 09:22:56;;;;;;;;;;;;;;;33.90;61.00;99905.31;4380472;32;20012;-84
2022/06/19 09:25:44;;;;;;;;;;;;;;;34.12;61.01;99901.53;4394258;32;19987;-84
2022/06/19 09:28:09;;;;;;;;;;;;;;;34.19;61.01;99893.47;4380464;32;20057;-84
2022/06/19 09:30:35;;;;;;;;;;;;;;;34.25;61.01;99881.03;4394298;32;20287;-84
2022/06/19 09:33:02;;;;;;;;;;;;;;;34.32;61.02;99885.44;4380395;32;20010;-83
2022/06/19 09:35:32;;;;;;;;;;;;;;;34.22;61.01;99876.03;4380438;32;19998;-84
2022/06/19 09:38:00;;;;;;;;;;;;;;;34.34;61.01;99875.31;4379862;32;19993;-84
2022/06/19 09:40:37;;;;;;;;;;;;;;;34.42;61.02;99872.44;4380317;32;20000;-83
2022/06/19 09:43:02;;;;;;;;;;;;;;;34.52;61.03;99872.03;4380486;32;20004;-83
2022/06/19 09:45:27;;;;;;;;;;;;;;;34.57;61.03;99875.00;4393911;32;19975;-84
2022/06/19 09:47:53;;;;;;;;;;;;;;;34.59;61.02;99882.91;4394001;32;19990;-83
2022/06/19 09:50:19;;;;;;;;;;;;;;;34.50;61.02;99879.53;4394081;32;19983;-85
2022/06/19 09:52:56;;;;;;;;;;;;;;;34.52;61.04;99873.91;4367620;32;20101;-84
2022/06/19 09:55:30;;;;;;;;;;;;;;;34.54;61.03;99880.78;4380304;32;19990;-84
2022/06/19 09:58:02;;;;;;;;;;;;;;;34.66;61.03;99870.25;4380143;32;20034;-84
2022/06/19 10:00:28;;;;;;;;;;;;;;;34.64;61.04;99865.03;4380286;32;20244;-84
2022/06/19 10:03:00;;;;;;;;;;;;;;;34.77;61.05;99854.25;4380002;32;20030;-85
2022/06/19 10:05:44;;;;;;;;;;;;;;;34.86;61.05;99854.94;4380094;32;20014;-83
2022/06/19 10:08:10;;;;;;;;;;;;;;;34.76;61.05;99858.00;4393702;32;20039;-84
2022/06/19 10:10:40;;;;;;;;;;;;;;;34.89;61.05;99861.81;4380041;32;19982;-84
2022/06/19 10:13:11;;;;;;;;;;;;;;;34.84;61.05;99840.81;4380096;32;20013;-84
2022/06/19 10:15:36;;;;;;;;;;;;;;;35.01;61.06;99841.25;4379944;32;20021;-84
2022/06/19 10:18:11;;;;;;;;;;;;;;;35.04;61.05;99852.50;4382518;32;20323;-84
2022/06/19 10:20:39;;;;;;;;;;;;;;;35.03;61.05;99842.72;4394181;32;19975;-85
2022/06/19 10:23:25;;;;;;;;;;;;;;;34.99;61.05;99835.19;4393737;32;20005;-85
2022/06/19 10:26:03;;;;;;;;;;;;;;;35.15;61.06;99832.13;4393703;32;19986;-84
2022/06/19 10:28:38;;;;;;;;;;;;;;;35.32;61.06;99836.09;4379840;32;19970;-86
2022/06/19 10:31:10;;;;;;;;;;;;;;;35.40;61.08;99832.38;4379964;32;19978;-85
2022/06/19 10:33:55;;;;;;;;;;;;;;;35.34;61.07;99825.09;4379742;32;19995;-84
2022/06/19 10:36:40;;;;;;;;;;;;;;;35.20;61.06;99835.03;4393544;32;19986;-85
2022/06/19 10:39:09;;;;;;;;;;;;;;;35.23;61.06;99828.38;4367303;32;19986;-85
2022/06/19 10:42:16;;;;;;;;;;;;;;;35.25;61.07;99823.56;4379639;32;19967;-84
2022/06/19 10:44:43;;;;;;;;;;;;;;;35.40;61.08;99807.19;4380421;32;20069;-85
2022/06/19 10:47:13;;;;;;;;;;;;;;;35.33;61.07;99807.16;4393628;32;19986;-85
2022/06/19 10:49:45;;;;;;;;;;;;;;;35.35;61.07;99805.09;4380897;32;20025;-85
2022/06/19 10:52:11;;;;;;;;;;;;;;;35.31;61.06;99806.53;4395184;32;20278;-84
2022/06/19 10:54:55;;;;;;;;;;;;;;;35.32;61.08;99786.53;4368926;32;19994;-85
2022/06/19 10:57:52;;;;;;;;;;;;;;;35.42;61.08;99792.38;4395193;32;20251;-85
2022/06/19 11:00:18;;;;;;;;;;;;;;;35.36;61.07;99793.22;4361341;32;20035;-85
2022/06/19 11:05:48;;;;;;;;;;;;;;;35.53;61.08;99797.19;4383585;32;20044;-85
2022/06/19 11:08:14;;;;;;;;;;;;;;;35.44;61.07;99787.59;4381635;32;20045;-84
2022/06/19 11:10:40;;;;;;;;;;;;;;;35.54;61.08;99779.91;4368813;32;19997;-85
2022/06/19 11:13:05;;;;;;;;;;;;;;;35.51;61.08;99787.63;4368862;32;19997;-85
2022/06/19 11:15:32;;;;;;;;;;;;;;;35.65;61.09;99787.37;4394947;32;20001;-85
2022/06/19 11:18:14;;;;;;;;;;;;;;;35.66;61.09;99774.66;4395112;32;20005;-85
2022/06/19 11:21:03;;;;;;;;;;;;;;;35.67;61.09;99784.44;4381249;32;19978;-85
2022/06/19 11:23:34;;;;;;;;;;;;;;;35.73;61.10;99780.91;4386447;32;19958;-86
2022/06/19 11:26:07;;;;;;;;;;;;;;;35.74;61.09;99782.56;4395028;32;20288;-85
2022/06/19 11:28:48;;;;;;;;;;;;;;;35.64;61.08;99790.28;4395010;32;19978;-84
2022/06/19 11:31:17;;;;;;;;;;;;;;;35.72;61.09;99767.56;4368732;32;19992;-85
2022/06/19 11:33:42;;;;;;;;;;;;;;;35.75;61.09;99753.62;4393630;32;19986;-84
2022/06/19 11:36:08;;;;;;;;;;;;;;;35.93;61.10;99756.50;4368572;32;20034;-85
2022/06/19 11:38:44;;;;;;;;;;;;;;;35.94;61.10;99750.03;4381055;32;20005;-85
2022/06/19 11:41:21;;;;;;;;;;;;;;;36.16;61.11;99754.09;4381192;32;19999;-84
2022/06/19 11:44:00;;;;;;;;;;;;;;;36.08;61.11;99753.53;4394879;32;19981;-84
2022/06/19 11:46:26;;;;;;;;;;;;;;;36.05;61.11;99752.09;4368503;32;19991;-86
2022/06/19 11:48:51;;;;;;;;;;;;;;;36.21;61.12;99757.03;4393452;32;19982;-85
2022/06/19 11:51:17;;;;;;;;;;;;;;;36.22;61.12;99755.16;4380740;32;19987;-85
2022/06/19 11:53:42;;;;;;;;;;;;;;;36.21;61.12;99754.31;4394643;32;19978;-85
2022/06/19 11:56:10;;;;;;;;;;;;;;;36.25;61.11;99752.84;4381034;32;20334;-85
2022/06/19 11:58:38;;;;;;;;;;;;;;;36.13;61.10;99753.72;4394822;32;20047;-85
2022/06/19 12:01:10;;;;;;;;;;;;;;;36.06;61.11;99742.09;4380556;32;20442;-85
2022/06/19 12:03:49;;;;;;;;;;;;;;;35.94;61.10;99741.91;4381071;32;20362;-86
2022/06/19 12:06:14;;;;;;;;;;;;;;;35.95;61.10;99749.81;4381680;32;19999;-85
2022/06/19 12:08:46;;;;;;;;;;;;;;;35.94;61.10;99737.31;4380903;32;20006;-86
2022/06/19 12:11:11;;;;;;;;;;;;;;;35.89;61.10;99741.72;4381035;32;19993;-85
2022/06/19 12:13:37;;;;;;;;;;;;;;;35.91;61.10;99736.91;4394395;32;20019;-85
2022/06/19 12:16:09;;;;;;;;;;;;;;;36.09;61.11;99731.63;4380836;32;20109;-85
2022/06/19 12:18:34;;;;;;;;;;;;;;;36.09;61.11;99728.09;4368442;32;20076;-86
2022/06/19 12:21:19;;;;;;;;;;;;;;;35.94;61.10;99731.06;4394010;32;27765;-85
2022/06/19 12:23:47;;;;;;;;;;;;;;;35.96;61.10;99728.97;4380817;32;19970;-85
2022/06/19 12:26:13;;;;;;;;;;;;;;;35.71;61.09;99726.09;4380807;32;19990;-85
2022/06/19 12:28:52;;;;;;;;;;;;;;;35.68;61.09;99724.66;4380771;32;19982;-85
2022/06/19 12:31:17;;;;;;;;;;;;;;;35.74;61.09;99720.28;4368475;32;20049;-85
2022/06/19 12:33:59;;;;;;;;;;;;;;;35.82;61.10;99719.22;4393138;32;20327;-85
2022/06/19 12:36:29;;;;;;;;;;;;;;;35.98;61.11;99710.66;4380763;32;20006;-85
2022/06/19 12:38:54;;;;;;;;;;;;;;;36.01;61.11;99715.62;4380703;32;20391;-86
2022/06/19 12:41:26;;;;;;;;;;;;;;;36.10;61.11;99702.66;4380050;32;32453;-85
2022/06/19 12:43:54;;;;;;;;;;;;;;;35.86;61.10;99706.94;4393135;32;20046;-85
2022/06/19 12:46:38;;;;;;;;;;;;;;;35.67;61.09;99693.22;4394511;32;19979;-85
2022/06/19 12:49:38;;;;;;;;;;;;;;;35.80;61.09;99696.94;4394737;32;19978;-86
2022/06/19 12:52:10;;;;;;;;;;;;;;;35.82;61.10;99692.97;4332258;33;19979;-84
2022/06/19 12:54:35;;;;;;;;;;;;;;;35.86;61.10;99691.50;4370288;32;20032;-84
2022/06/19 12:57:10;;;;;;;;;;;;;;;35.90;61.11;99678.38;4394324;32;20291;-85
2022/06/19 12:59:38;;;;;;;;;;;;;;;35.94;61.10;99682.31;4380481;32;20085;-84
2022/06/19 13:02:17;;;;;;;;;;;;;;;35.97;61.11;99674.59;4392805;32;20006;-85